Terminal Aerodrome Forecast
Issued by NWS

Current Version | Previous Version | Text Only | Print | Product List | Glossary On
Versions: 1 2 3 4 5 6 7 8 9 10 11 12 13 14 15 16 17 18
000
FTUS41 KRNK 230523
TAFLWB
TAF
KLWB 230523Z 2306/2406 33009KT P6SM -DZ OVC016
     FM231500 32007KT P6SM OVC027
     FM232100 31005KT P6SM BKN030
     FM240300 31002KT P6SM SCT040 BKN100=

USA.gov is the U.S. government's official web portal to all federal, state and local government web resources and services.